createdAt,value
2018-09-21T00:01:53.211Z,92.70
2018-09-21T00:04:21.340Z,92.60
2018-09-21T00:06:49.534Z,92.50
2018-09-21T00:09:17.715Z,92.40
2018-09-21T00:11:45.883Z,92.40
2018-09-21T00:14:14.121Z,92.40
2018-09-21T00:16:42.257Z,92.40
2018-09-21T00:19:10.460Z,92.40
2018-09-21T00:21:38.637Z,92.50
2018-09-21T00:24:06.784Z,92.40
2018-09-21T00:26:34.928Z,92.50
2018-09-21T00:29:03.106Z,92.40
2018-09-21T00:31:31.271Z,92.40
2018-09-21T00:33:59.444Z,92.50
2018-09-21T00:36:27.581Z,92.50
2018-09-21T00:38:55.667Z,92.60
2018-09-21T00:41:23.803Z,92.50
2018-09-21T00:43:51.980Z,92.60
2018-09-21T00:46:20.253Z,92.60
2018-09-21T00:48:48.383Z,92.60
2018-09-21T00:51:16.514Z,92.70
2018-09-21T00:53:44.648Z,92.60
2018-09-21T00:56:12.847Z,92.70
2018-09-21T00:58:40.996Z,92.70
2018-09-21T01:01:09.115Z,92.80
2018-09-21T01:03:37.282Z,92.80
2018-09-21T01:06:05.438Z,92.80
2018-09-21T01:08:33.680Z,92.80
2018-09-21T01:11:01.828Z,92.90
2018-09-21T01:13:30.024Z,92.90
2018-09-21T01:15:58.220Z,92.90
2018-09-21T01:18:26.866Z,92.90
2018-09-21T01:20:55.062Z,92.80
2018-09-21T01:23:23.234Z,92.90
2018-09-21T01:25:51.747Z,92.90
2018-09-21T01:28:19.966Z,93.00
2018-09-21T01:30:48.208Z,93.00
2018-09-21T01:33:16.382Z,93.00
2018-09-21T01:35:44.599Z,93.00
2018-09-21T01:38:12.808Z,92.90
2018-09-21T01:40:41.271Z,92.90
2018-09-21T01:43:10.374Z,92.90
2018-09-21T01:45:44.132Z,92.90
2018-09-21T01:48:12.367Z,92.90
2018-09-21T01:50:48.423Z,92.90
2018-09-21T01:53:16.700Z,92.90
2018-09-21T01:55:44.853Z,93.00
2018-09-21T01:58:13.613Z,93.00
2018-09-21T02:00:41.793Z,93.10
2018-09-21T02:03:09.988Z,93.10
2018-09-21T02:05:39.012Z,93.10
2018-09-21T02:08:07.156Z,93.10
2018-09-21T02:10:35.350Z,93.10
2018-09-21T02:13:04.747Z,93.10
2018-09-21T02:15:32.902Z,93.20
2018-09-21T02:18:01.130Z,93.20
2018-09-21T02:20:30.982Z,93.20
2018-09-21T02:22:59.392Z,93.20
2018-09-21T02:25:27.549Z,93.20
2018-09-21T02:27:55.796Z,93.10
2018-09-21T02:30:23.963Z,93.10
2018-09-21T02:32:52.085Z,93.10
2018-09-21T02:35:20.342Z,93.10
2018-09-21T02:37:48.515Z,93.00
2018-09-21T02:40:16.713Z,93.10
2018-09-21T02:42:47.064Z,93.00
2018-09-21T02:45:15.254Z,92.90
2018-09-21T02:47:44.251Z,92.90
2018-09-21T02:50:13.036Z,92.80
2018-09-21T02:52:41.589Z,92.70
2018-09-21T02:55:09.737Z,92.60
2018-09-21T02:57:37.936Z,92.60
2018-09-21T03:00:06.694Z,92.60
2018-09-21T03:02:38.283Z,92.60
2018-09-21T03:05:06.505Z,92.70
2018-09-21T03:07:35.777Z,92.70
2018-09-21T03:10:04.770Z,92.80
2018-09-21T03:12:33.040Z,92.90
2018-09-21T03:15:01.192Z,92.90
2018-09-21T03:17:29.337Z,92.90
2018-09-21T03:19:57.474Z,92.90
2018-09-21T03:22:25.696Z,92.80
2018-09-21T03:24:53.888Z,92.80
2018-09-21T03:27:23.841Z,92.90
2018-09-21T03:29:52.070Z,92.90
2018-09-21T03:32:21.639Z,93.00
2018-09-21T03:34:49.803Z,93.10
2018-09-21T03:37:17.941Z,93.10
2018-09-21T03:39:46.147Z,93.20
2018-09-21T03:42:14.367Z,93.20
2018-09-21T03:44:42.562Z,93.20
2018-09-21T03:47:10.735Z,93.30
2018-09-21T03:49:38.873Z,93.30
2018-09-21T03:52:07.108Z,93.40
2018-09-21T03:54:35.268Z,93.50
2018-09-21T03:57:03.399Z,93.40
2018-09-21T03:59:31.604Z,93.40
2018-09-21T04:02:00.941Z,93.50
2018-09-21T04:04:29.080Z,93.50
2018-09-21T04:06:57.322Z,93.50
2018-09-21T04:09:25.499Z,93.50
2018-09-21T04:11:53.646Z,93.50
2018-09-21T04:14:22.356Z,93.60
2018-09-21T04:16:50.570Z,93.70
2018-09-21T04:19:18.740Z,93.60
2018-09-21T04:21:46.916Z,93.60
2018-09-21T04:24:15.808Z,93.50
2018-09-21T04:26:44.118Z,93.90
2018-09-21T04:29:13.034Z,93.80
2018-09-21T04:31:42.240Z,93.80
2018-09-21T04:34:10.552Z,93.90
2018-09-21T04:36:38.726Z,94.00
2018-09-21T04:39:08.985Z,94.10
2018-09-21T04:41:37.390Z,94.20
2018-09-21T04:44:05.603Z,94.40
2018-09-21T04:46:46.960Z,94.40
2018-09-21T04:49:15.884Z,94.50
2018-09-21T04:51:44.092Z,94.80
2018-09-21T04:54:12.269Z,94.60
2018-09-21T04:56:40.479Z,94.40
2018-09-21T04:59:08.681Z,94.70
2018-09-21T05:01:36.954Z,94.80
2018-09-21T05:04:05.124Z,94.70
2018-09-21T05:06:33.675Z,94.80
2018-09-21T05:09:05.521Z,94.80
2018-09-21T05:11:33.708Z,94.90
2018-09-21T05:14:01.870Z,94.80
2018-09-21T05:16:30.988Z,94.80
2018-09-21T05:18:59.216Z,94.90
2018-09-21T05:21:27.332Z,94.80
2018-09-21T05:23:55.519Z,94.70
2018-09-21T05:26:23.646Z,94.70
2018-09-21T05:28:51.887Z,94.60
2018-09-21T05:31:20.100Z,94.40
2018-09-21T05:33:48.293Z,94.30
2018-09-21T05:36:16.536Z,94.10
2018-09-21T05:38:44.662Z,93.90
2018-09-21T05:41:12.832Z,93.80
2018-09-21T05:43:41.120Z,93.60
2018-09-21T05:46:09.848Z,93.50
2018-09-21T05:48:38.074Z,93.40
2018-09-21T05:51:06.810Z,93.30
2018-09-21T05:53:34.974Z,93.10
2018-09-21T05:56:03.146Z,93.00
2018-09-21T05:58:31.364Z,92.50
2018-09-21T06:00:59.552Z,92.30
2018-09-21T06:03:27.734Z,92.10
2018-09-21T06:05:55.934Z,91.90
2018-09-21T06:08:24.103Z,91.70
2018-09-21T06:10:52.394Z,91.50
2018-09-21T06:13:20.604Z,91.30
2018-09-21T06:15:48.760Z,91.10
2018-09-21T06:18:17.898Z,90.90
2018-09-21T06:20:46.030Z,90.50
2018-09-21T06:23:14.188Z,90.10
2018-09-21T06:25:42.352Z,89.70
2018-09-21T06:28:11.073Z,89.30
2018-09-21T06:30:39.522Z,88.10
2018-09-21T06:33:07.686Z,87.20
2018-09-21T06:35:35.854Z,86.50
2018-09-21T06:38:04.010Z,86.20
2018-09-21T06:40:32.142Z,85.20
2018-09-21T06:43:00.304Z,84.00
2018-09-21T06:45:28.459Z,83.60
2018-09-21T06:47:56.679Z,82.60
2018-09-21T06:50:24.817Z,82.00
2018-09-21T06:52:53.068Z,81.50
2018-09-21T06:55:21.274Z,81.00
2018-09-21T06:57:50.095Z,80.30
2018-09-21T07:00:18.296Z,80.40
2018-09-21T07:02:46.468Z,80.00
2018-09-21T07:05:15.922Z,80.20
2018-09-21T07:07:44.404Z,79.60
2018-09-21T07:10:13.076Z,79.60
2018-09-21T07:12:41.864Z,79.50
2018-09-21T07:15:10.346Z,79.00
2018-09-21T07:17:38.749Z,78.90
2018-09-21T07:20:07.014Z,78.40
2018-09-21T07:22:35.514Z,78.10
2018-09-21T07:25:04.018Z,78.10
2018-09-21T07:27:32.353Z,78.20
2018-09-21T07:30:00.474Z,78.00
2018-09-21T07:32:28.706Z,78.20
2018-09-21T07:34:57.035Z,78.80
2018-09-21T07:37:25.374Z,79.00
2018-09-21T07:39:53.486Z,79.10
2018-09-21T07:42:22.512Z,79.20
2018-09-21T07:44:50.684Z,79.30
2018-09-21T07:47:19.748Z,79.20
2018-09-21T07:49:48.429Z,79.40
2018-09-21T07:52:16.620Z,79.70
2018-09-21T07:54:46.032Z,79.90
2018-09-21T07:57:14.153Z,79.80
2018-09-21T07:59:42.347Z,79.90
2018-09-21T08:02:10.543Z,79.80
2018-09-21T08:04:39.358Z,79.30
2018-09-21T08:07:07.759Z,78.90
2018-09-21T08:09:36.011Z,78.40
2018-09-21T08:12:04.597Z,77.90
2018-09-21T08:14:32.776Z,77.30
2018-09-21T08:17:00.954Z,76.00
2018-09-21T08:19:29.169Z,75.30
2018-09-21T08:21:57.417Z,75.30
2018-09-21T08:24:25.575Z,74.20
2018-09-21T08:26:53.885Z,73.30
2018-09-21T08:29:22.139Z,72.90
2018-09-21T08:31:50.304Z,72.50
2018-09-21T08:34:18.713Z,72.20
2018-09-21T08:36:48.178Z,72.60
2018-09-21T08:39:16.929Z,72.30
2018-09-21T08:41:45.391Z,71.70
2018-09-21T08:44:13.641Z,70.90
2018-09-21T08:46:41.848Z,70.90
2018-09-21T08:49:10.037Z,70.20
2018-09-21T08:51:38.257Z,69.50
2018-09-21T08:54:06.699Z,69.50
2018-09-21T08:56:34.945Z,68.90
2018-09-21T08:59:03.114Z,68.60
2018-09-21T09:01:31.464Z,68.50
2018-09-21T09:04:00.804Z,68.10
2018-09-21T09:06:30.003Z,67.50
2018-09-21T09:08:58.239Z,66.60
2018-09-21T09:11:26.415Z,66.60
2018-09-21T09:13:54.545Z,66.00
2018-09-21T09:16:22.798Z,66.00
2018-09-21T09:18:52.063Z,65.60
2018-09-21T09:21:20.214Z,64.80
2018-09-21T09:23:48.406Z,64.00
2018-09-21T09:26:16.601Z,63.80
2018-09-21T09:28:44.801Z,63.70
2018-09-21T09:31:12.970Z,63.30
2018-09-21T09:33:41.190Z,62.90
2018-09-21T09:36:09.410Z,62.50
2018-09-21T09:38:37.832Z,62.20
2018-09-21T09:41:06.056Z,61.70
2018-09-21T09:43:34.241Z,61.70
2018-09-21T09:46:02.470Z,61.10
2018-09-21T09:48:30.733Z,60.80
2018-09-21T09:50:58.966Z,60.30
2018-09-21T09:53:27.234Z,59.50
2018-09-21T09:55:55.386Z,59.10
2018-09-21T09:58:23.592Z,58.90
2018-09-21T10:00:52.403Z,58.40
2018-09-21T10:03:22.386Z,57.80
2018-09-21T10:05:50.846Z,57.80
2018-09-21T10:08:19.166Z,57.90
2018-09-21T10:10:47.368Z,56.90
2018-09-21T10:13:15.506Z,56.70
2018-09-21T10:15:43.727Z,56.00
2018-09-21T10:18:12.008Z,55.70
2018-09-21T10:20:40.232Z,55.80
2018-09-21T10:23:08.682Z,55.30
2018-09-21T10:25:36.845Z,54.00
2018-09-21T10:28:05.301Z,54.10
2018-09-21T10:30:33.869Z,54.50
2018-09-21T10:33:02.209Z,53.60
2018-09-21T10:35:30.419Z,53.50
2018-09-21T10:37:58.524Z,53.40
2018-09-21T10:40:27.776Z,53.00
2018-09-21T10:42:56.042Z,52.80
2018-09-21T10:45:24.218Z,51.80
2018-09-21T10:47:53.242Z,51.10
2018-09-21T10:50:23.358Z,51.00
2018-09-21T10:52:51.632Z,50.70
2018-09-21T10:55:19.742Z,50.10
2018-09-21T10:57:47.904Z,49.60
2018-09-21T11:00:16.708Z,49.10
2018-09-21T11:02:44.847Z,48.70
2018-09-21T11:05:13.041Z,48.50
2018-09-21T11:07:41.290Z,49.10
2018-09-21T11:10:09.667Z,48.30
2018-09-21T11:12:37.954Z,48.40
2018-09-21T11:15:07.284Z,48.50
2018-09-21T11:17:36.609Z,48.90
2018-09-21T11:20:04.923Z,49.30
2018-09-21T11:22:33.062Z,49.30
2018-09-21T11:25:01.280Z,49.20
2018-09-21T11:27:29.382Z,49.10
2018-09-21T11:29:57.650Z,49.00
2018-09-21T11:32:25.785Z,48.50
2018-09-21T11:34:54.607Z,48.40
2018-09-21T11:37:22.809Z,47.70
2018-09-21T11:39:51.008Z,47.60
2018-09-21T11:42:19.229Z,47.20
2018-09-21T11:44:47.492Z,47.60
2018-09-21T11:47:15.738Z,47.00
2018-09-21T11:49:43.785Z,46.60
2018-09-21T11:52:12.034Z,47.10
2018-09-21T11:54:40.286Z,45.90
2018-09-21T11:57:08.408Z,45.60
2018-09-21T11:59:43.281Z,45.60
2018-09-21T12:02:11.500Z,45.20
2018-09-21T12:04:40.318Z,45.20
2018-09-21T12:07:08.486Z,45.10
2018-09-21T12:09:36.636Z,44.70
2018-09-21T12:12:04.840Z,44.90
2018-09-21T12:14:32.985Z,44.90
2018-09-21T12:17:01.228Z,45.20
2018-09-21T12:19:29.452Z,45.60
2018-09-21T12:21:57.708Z,46.00
2018-09-21T12:24:25.878Z,46.50
2018-09-21T12:26:54.053Z,46.70
2018-09-21T12:29:22.336Z,46.70
2018-09-21T12:31:50.529Z,46.50
2018-09-21T12:34:19.309Z,46.60
2018-09-21T12:36:47.446Z,46.40
2018-09-21T12:39:15.686Z,46.30
2018-09-21T12:41:45.918Z,46.30
2018-09-21T12:44:15.667Z,46.10
2018-09-21T12:46:43.852Z,46.00
2018-09-21T12:49:12.109Z,45.70
2018-09-21T12:51:40.291Z,45.50
2018-09-21T12:54:08.490Z,45.50
2018-09-21T12:56:36.731Z,45.40
2018-09-21T12:59:04.913Z,45.20
2018-09-21T13:01:33.111Z,45.10
2018-09-21T13:04:01.675Z,45.00
2018-09-21T13:06:29.951Z,45.40
2018-09-21T13:08:58.079Z,45.60
2018-09-21T13:11:26.234Z,45.90
2018-09-21T13:13:54.466Z,46.00
2018-09-21T13:16:22.717Z,46.00
2018-09-21T13:18:50.964Z,46.20
2018-09-21T13:21:19.131Z,45.60
2018-09-21T13:23:47.346Z,45.90
2018-09-21T13:26:15.584Z,46.20
2018-09-21T13:28:43.805Z,45.70
2018-09-21T13:31:11.934Z,45.30
2018-09-21T13:33:40.864Z,45.10
2018-09-21T13:36:09.034Z,45.00
2018-09-21T13:38:37.206Z,44.70
2018-09-21T13:41:05.495Z,45.00
2018-09-21T13:43:34.058Z,45.40
2018-09-21T13:46:02.264Z,45.70
2018-09-21T13:48:30.426Z,46.40
2018-09-21T13:50:58.684Z,46.80
2018-09-21T13:53:26.900Z,47.20
2018-09-21T13:55:55.136Z,47.60
2018-09-21T13:58:23.388Z,47.90
2018-09-21T14:00:51.624Z,48.20
2018-09-21T14:03:19.940Z,48.70
2018-09-21T14:05:49.421Z,49.00
2018-09-21T14:08:17.668Z,49.10
2018-09-21T14:10:45.934Z,49.20
2018-09-21T14:13:14.132Z,49.10
2018-09-21T14:15:42.440Z,49.10
2018-09-21T14:18:10.612Z,49.20
2018-09-21T14:20:38.800Z,49.50
2018-09-21T14:23:06.997Z,49.80
2018-09-21T14:25:37.228Z,49.90
2018-09-21T14:28:05.510Z,49.80
2018-09-21T14:30:33.857Z,49.90
2018-09-21T14:33:02.003Z,50.10
2018-09-21T14:35:30.212Z,50.00
2018-09-21T14:37:58.379Z,50.10
2018-09-21T14:40:26.991Z,50.00
2018-09-21T14:42:56.921Z,50.00
2018-09-21T14:45:27.507Z,50.30
2018-09-21T14:47:55.860Z,50.70
2018-09-21T14:50:24.029Z,56.50
2018-09-21T14:52:52.275Z,60.50
2018-09-21T14:55:20.409Z,62.40
2018-09-21T14:57:48.632Z,62.70
2018-09-21T15:00:17.682Z,63.10
2018-09-21T15:02:45.890Z,63.00
2018-09-21T15:05:14.185Z,63.80
2018-09-21T15:07:42.454Z,65.20
2018-09-21T15:10:10.630Z,66.80
2018-09-21T15:12:38.782Z,69.40
2018-09-21T15:15:07.262Z,70.40
2018-09-21T15:17:35.380Z,72.50
2018-09-21T15:20:03.618Z,74.30
2018-09-21T15:22:32.212Z,75.60
2018-09-21T15:25:01.110Z,77.50
2018-09-21T15:27:29.254Z,80.50
2018-09-21T15:29:57.400Z,82.80
2018-09-21T15:32:25.616Z,84.90
2018-09-21T15:34:53.774Z,87.10
2018-09-21T15:37:22.037Z,87.90
2018-09-21T15:39:50.185Z,87.10
2018-09-21T15:42:18.316Z,88.80
2018-09-21T15:44:48.190Z,88.00
2018-09-21T15:47:16.381Z,87.00
2018-09-21T15:49:44.587Z,87.60
2018-09-21T15:52:12.738Z,87.00
2018-09-21T15:54:40.928Z,85.40
2018-09-21T15:57:09.074Z,85.50
2018-09-21T15:59:37.278Z,85.80
2018-09-21T16:02:05.434Z,87.10
2018-09-21T16:04:34.364Z,88.10
2018-09-21T16:07:04.443Z,89.80
2018-09-21T16:09:32.633Z,88.20
2018-09-21T16:12:00.944Z,88.50
2018-09-21T16:14:31.682Z,89.00
2018-09-21T16:16:59.870Z,89.50
2018-09-21T16:19:28.042Z,90.40
2018-09-21T16:21:56.224Z,90.70
2018-09-21T16:24:26.069Z,91.00
2018-09-21T16:26:56.825Z,91.10
2018-09-21T16:29:26.247Z,91.60
2018-09-21T16:31:54.447Z,91.80
2018-09-21T16:34:22.749Z,92.10
2018-09-21T16:36:50.995Z,92.10
2018-09-21T16:39:19.251Z,92.20
2018-09-21T16:41:48.026Z,92.50
2018-09-21T16:44:16.266Z,92.70
2018-09-21T16:46:44.448Z,92.90
2018-09-21T16:49:12.807Z,93.20
2018-09-21T16:51:42.674Z,93.00
2018-09-21T16:54:12.577Z,93.60
2018-09-21T16:56:40.874Z,93.40
2018-09-21T16:59:09.086Z,93.30
2018-09-21T17:01:37.273Z,93.30
2018-09-21T17:04:06.432Z,93.60
2018-09-21T17:06:35.397Z,93.70
2018-09-21T17:09:03.818Z,94.30
2018-09-21T17:11:31.980Z,94.20
2018-09-21T17:14:00.268Z,94.00
2018-09-21T17:16:28.491Z,94.40
2018-09-21T17:18:56.704Z,94.80
2018-09-21T17:21:25.625Z,94.80
2018-09-21T17:23:54.896Z,94.90
2018-09-21T17:26:23.280Z,94.80
2018-09-21T17:28:51.424Z,94.90
2018-09-21T17:31:20.588Z,94.80
2018-09-21T17:33:49.579Z,95.00
2018-09-21T17:36:17.782Z,94.80
2018-09-21T17:38:46.544Z,95.10
2018-09-21T17:41:14.752Z,95.30
2018-09-21T17:43:42.941Z,95.30
2018-09-21T17:46:11.196Z,95.40
2018-09-21T17:48:39.403Z,95.80
2018-09-21T17:51:08.491Z,96.00
2018-09-21T17:53:36.895Z,96.00
2018-09-21T17:56:05.117Z,96.20
2018-09-21T17:58:33.313Z,96.50
2018-09-21T18:01:01.595Z,96.60
2018-09-21T18:03:29.852Z,96.80
2018-09-21T18:06:19.763Z,96.70
2018-09-21T18:08:49.447Z,96.90
2018-09-21T18:11:17.680Z,97.00
2018-09-21T18:13:45.899Z,97.20
2018-09-21T18:16:14.220Z,97.00
2018-09-21T18:18:42.360Z,97.20
2018-09-21T18:21:10.604Z,97.40
2018-09-21T18:23:39.910Z,97.40
2018-09-21T18:26:09.234Z,97.40
2018-09-21T18:28:37.554Z,97.30
2018-09-21T18:31:05.852Z,97.00
2018-09-21T18:33:34.151Z,97.00
2018-09-21T18:36:04.720Z,97.20
2018-09-21T18:38:32.992Z,97.30
2018-09-21T18:41:01.207Z,97.40
2018-09-21T18:43:29.466Z,97.50
2018-09-21T18:45:58.432Z,97.40
2018-09-21T18:51:09.314Z,97.60
2018-09-21T18:53:38.180Z,97.50
2018-09-21T18:56:06.402Z,97.50
2018-09-21T18:58:35.777Z,97.60
2018-09-21T19:01:05.078Z,97.40
2018-09-21T19:03:33.249Z,97.40
2018-09-21T19:06:01.470Z,97.30
2018-09-21T19:08:29.709Z,97.30
2018-09-21T19:10:58.049Z,97.30
2018-09-21T19:13:28.518Z,97.20
2018-09-21T19:15:57.920Z,97.30
2018-09-21T19:18:26.160Z,97.30
2018-09-21T19:20:54.426Z,97.40
2018-09-21T19:23:23.317Z,97.50
2018-09-21T19:25:52.518Z,97.70
2018-09-21T19:28:21.031Z,97.50
2018-09-21T19:30:49.270Z,97.30
2018-09-21T19:33:17.533Z,97.30
2018-09-21T19:35:45.936Z,97.20
2018-09-21T19:38:15.182Z,97.30
2018-09-21T19:40:50.377Z,97.30
2018-09-21T19:43:18.698Z,97.30
2018-09-21T19:45:47.162Z,97.30
2018-09-21T19:48:15.541Z,97.30
2018-09-21T19:50:43.678Z,97.10
2018-09-21T19:53:11.945Z,97.10
2018-09-21T19:55:41.626Z,97.10
2018-09-21T19:58:14.965Z,97.10
2018-09-21T20:00:43.384Z,97.00
2018-09-21T20:03:13.588Z,97.00
2018-09-21T20:05:41.778Z,96.90
2018-09-21T20:08:10.660Z,96.70
2018-09-21T20:10:39.657Z,96.70
2018-09-21T20:13:07.863Z,96.90
2018-09-21T20:15:47.268Z,96.90
2018-09-21T20:18:21.228Z,97.00
2018-09-21T20:20:49.488Z,97.00
2018-09-21T20:23:18.848Z,97.00
2018-09-21T20:25:46.995Z,96.80
2018-09-21T20:28:15.190Z,96.80
2018-09-21T20:30:53.102Z,96.70
2018-09-21T20:33:27.637Z,96.70
2018-09-21T20:35:56.267Z,96.80
2018-09-21T20:38:24.475Z,96.80
2018-09-21T20:40:52.641Z,96.70
2018-09-21T20:43:24.894Z,96.60
2018-09-21T20:45:53.533Z,96.60
2018-09-21T20:48:23.701Z,96.70
2018-09-21T20:50:52.126Z,96.60
2018-09-21T20:53:20.646Z,96.70
2018-09-21T20:55:48.803Z,96.60
2018-09-21T20:58:17.010Z,96.60
2018-09-21T21:00:45.184Z,96.30
2018-09-21T21:03:14.546Z,96.10
2018-09-21T21:05:42.684Z,96.00
2018-09-21T21:08:10.885Z,95.90
2018-09-21T21:10:41.364Z,95.80
2018-09-21T21:13:10.583Z,95.80
2018-09-21T21:15:39.522Z,95.80
2018-09-21T21:18:08.786Z,95.60
2018-09-21T21:20:37.013Z,95.60
2018-09-21T21:23:05.689Z,95.70
2018-09-21T21:25:34.120Z,95.60
2018-09-21T21:28:02.300Z,95.50
2018-09-21T21:30:30.449Z,95.50
2018-09-21T21:32:58.570Z,95.60
2018-09-21T21:35:26.718Z,95.30
2018-09-21T21:37:56.660Z,95.10
2018-09-21T21:40:24.927Z,94.80
2018-09-21T21:42:53.039Z,94.60
2018-09-21T21:45:21.182Z,94.10
2018-09-21T21:47:49.304Z,93.80
2018-09-21T21:50:18.357Z,93.50
2018-09-21T21:52:47.115Z,93.40
2018-09-21T21:55:15.276Z,93.40
2018-09-21T21:57:43.983Z,93.10
2018-09-21T22:00:14.935Z,92.80
2018-09-21T22:02:43.801Z,92.50
2018-09-21T22:05:12.073Z,92.40
2018-09-21T22:07:40.302Z,92.20
2018-09-21T22:10:08.936Z,91.90
2018-09-21T22:12:43.307Z,91.70
2018-09-21T22:15:13.881Z,91.20
2018-09-21T22:17:43.371Z,91.10
2018-09-21T22:20:12.269Z,91.20
2018-09-21T22:22:40.485Z,91.10
2018-09-21T22:25:09.253Z,91.10
2018-09-21T22:27:37.425Z,90.90
2018-09-21T22:30:05.875Z,91.10
2018-09-21T22:32:34.031Z,91.20
2018-09-21T22:35:03.131Z,91.00
2018-09-21T22:37:31.325Z,91.20
2018-09-21T22:39:59.544Z,91.00
2018-09-21T22:42:27.787Z,90.80
2018-09-21T22:44:57.302Z,90.80
2018-09-21T22:47:26.507Z,90.90
2018-09-21T22:49:57.375Z,90.90
2018-09-21T22:52:25.679Z,90.50
2018-09-21T22:54:53.865Z,90.60
2018-09-21T22:57:22.199Z,90.60
2018-09-21T22:59:50.767Z,90.80
2018-09-21T23:02:18.924Z,90.90
2018-09-21T23:04:47.105Z,91.20
2018-09-21T23:07:15.272Z,91.30
2018-09-21T23:09:44.336Z,91.30
2018-09-21T23:12:12.545Z,91.60
2018-09-21T23:14:40.762Z,91.80
2018-09-21T23:17:08.995Z,91.90
2018-09-21T23:19:38.400Z,92.00
2018-09-21T23:22:06.587Z,92.00
2018-09-21T23:24:35.059Z,91.90
2018-09-21T23:27:04.542Z,91.90
2018-09-21T23:29:36.297Z,91.60
2018-09-21T23:32:12.147Z,91.60
2018-09-21T23:34:40.781Z,91.30
2018-09-21T23:37:08.987Z,91.00
2018-09-21T23:39:45.253Z,90.80
2018-09-21T23:42:13.431Z,90.60
2018-09-21T23:44:41.613Z,90.40
2018-09-21T23:47:09.843Z,90.30
2018-09-21T23:49:38.085Z,90.20
2018-09-21T23:52:06.429Z,90.10
2018-09-21T23:54:34.637Z,90.00
2018-09-21T23:57:04.116Z,90.10
2018-09-21T23:59:32.389Z,90.30
